Time;durP1;ratioP1;P1;durP2;ratioP2;P2;SDS_P1;SDS_P2;PMS_P1;PMS_P2;Temp;Humidity;BMP_temperature;BMP_pressure;BME280_temperature;BME280_humidity;BME280_pressure;Samples;Min_cycle;Max_cycle;Signal;HPM_P1;HPM_P2
2023/05/25 00:01:18;;;;;;;5.80;1.60;;;9.70;99.90;;;;;;5055033;28;20045;-64
2023/05/25 00:03:44;;;;;;;5.22;1.50;;;9.70;99.90;;;;;;5071897;28;20044;-64
2023/05/25 00:06:10;;;;;;;2.95;1.60;;;9.70;99.90;;;;;;5073007;28;20048;-64
2023/05/25 00:08:39;;;;;;;4.47;1.88;;;10.00;99.90;;;;;;5071754;28;20068;-64
2023/05/25 00:11:05;;;;;;;2.70;1.65;;;9.60;99.90;;;;;;5072989;28;20063;-64
2023/05/25 00:13:31;;;;;;;6.38;1.70;;;9.60;99.90;;;;;;5072565;28;20500;-64
2023/05/25 00:15:57;;;;;;;4.35;1.80;;;9.10;1.00;;;;;;5054926;28;20495;-64
2023/05/25 00:18:23;;;;;;;4.45;2.00;;;9.50;1.00;;;;;;5022803;28;20061;-64
2023/05/25 00:20:53;;;;;;;5.18;1.80;;;10.50;1.00;;;;;;5079247;28;20072;-64
2023/05/25 00:23:19;;;;;;;2.90;1.60;;;9.50;1.00;;;;;;5061217;28;20184;-64
2023/05/25 00:25:45;;;;;;;5.20;1.77;;;9.40;1.00;;;;;;5061690;28;20041;-64
2023/05/25 00:28:11;;;;;;;5.10;1.80;;;9.40;1.00;;;;;;5079485;28;20116;-64
2023/05/25 00:30:37;;;;;;;2.28;1.23;;;9.00;1.00;;;;;;5079470;28;20552;-64
2023/05/25 00:33:03;;;;;;;5.25;1.65;;;9.40;1.00;;;;;;5079006;28;20132;-64
2023/05/25 00:35:29;;;;;;;2.45;1.30;;;9.40;99.90;;;;;;5061194;28;20123;-64
2023/05/25 00:37:55;;;;;;;9.32;1.70;;;9.40;99.90;;;;;;5079226;28;20029;-64
2023/05/25 00:40:21;;;;;;;2.80;1.35;;;9.30;99.90;;;;;;5044517;28;20083;-64
2023/05/25 00:42:47;;;;;;;5.47;1.80;;;9.30;99.90;;;;;;5079041;28;20033;-64
2023/05/25 00:45:13;;;;;;;3.53;1.40;;;11.40;99.90;;;;;;5078079;28;20487;-64
2023/05/25 00:47:40;;;;;;;6.13;1.77;;;9.30;99.90;;;;;;5061117;28;20044;-64
2023/05/25 00:50:09;;;;;;;7.13;1.48;;;9.20;1.00;;;;;;5078878;28;20048;-64
2023/05/25 00:52:34;;;;;;;4.97;1.70;;;9.20;1.00;;;;;;5078983;28;20047;-64
2023/05/25 00:55:02;;;;;;;5.28;1.42;;;9.10;1.00;;;;;;5078915;28;20040;-64
2023/05/25 00:57:32;;;;;;;4.70;2.10;;;9.10;1.00;;;;;;5079079;28;20037;-64
2023/05/25 01:00:00;;;;;;;3.13;1.80;;;9.10;1.00;;;;;;5061534;28;20041;-64
2023/05/25 01:02:27;;;;;;;4.28;1.75;;;9.10;1.00;;;;;;5079174;28;20103;-64
2023/05/25 01:05:02;;;;;;;4.93;1.90;;;9.00;1.00;;;;;;5044238;28;20040;-64
2023/05/25 01:07:31;;;;;;;3.80;1.58;;;9.00;1.00;;;;;;5061711;28;20036;-64
2023/05/25 01:10:01;;;;;;;5.35;1.77;;;11.30;1.00;;;;;;5061545;28;20047;-64
2023/05/25 01:12:28;;;;;;;4.60;1.80;;;8.90;1.00;;;;;;5057503;28;20045;-64
2023/05/25 01:14:55;;;;;;;3.15;1.40;;;8.90;1.00;;;;;;5057805;28;20072;-64
2023/05/25 01:17:21;;;;;;;4.30;1.63;;;8.90;1.00;;;;;;5058957;28;20103;-64
2023/05/25 01:19:47;;;;;;;3.17;1.48;;;8.90;1.00;;;;;;5057501;28;20040;-64
2023/05/25 01:22:26;;;;;;;5.18;1.48;;;8.80;1.00;;;;;;5058642;28;20052;-64
2023/05/25 01:25:02;;;;;;;5.03;1.73;;;8.80;1.00;;;;;;5059015;28;20047;-65
2023/05/25 01:27:34;;;;;;;4.30;1.92;;;10.90;1.00;;;;;;5058986;28;20044;-64
2023/05/25 01:30:02;;;;;;;2.60;1.45;;;8.80;1.00;;;;;;5039493;28;20087;-66
2023/05/25 01:32:31;;;;;;;4.30;1.90;;;8.80;1.00;;;;;;5054423;28;20048;-65
2023/05/25 01:34:57;;;;;;;6.60;1.77;;;8.80;1.00;;;;;;5037861;28;20045;-64
2023/05/25 01:37:25;;;;;;;5.45;1.85;;;8.80;6.30;;;;;;5055251;28;20057;-64
2023/05/25 01:39:50;;;;;;;6.78;1.70;;;8.80;14.30;;;;;;5054374;28;20041;-64
2023/05/25 01:42:16;;;;;;;4.55;1.75;;;8.80;9.60;;;;;;5055210;28;20397;-64
2023/05/25 01:44:42;;;;;;;4.97;1.85;;;9.80;2.70;;;;;;5037693;28;20037;-64
2023/05/25 01:47:15;;;;;;;8.93;2.00;;;8.80;6.20;;;;;;5055458;28;20045;-64
2023/05/25 01:49:44;;;;;;;4.45;1.92;;;8.80;10.80;;;;;;5053937;28;20049;-64
2023/05/25 01:52:18;;;;;;;6.40;1.98;;;8.80;16.30;;;;;;5053759;28;20140;-64
2023/05/25 01:54:49;;;;;;;6.32;1.92;;;8.90;22.50;;;;;;5053790;28;20124;-64
2023/05/25 01:57:17;;;;;;;3.20;1.77;;;8.70;29.40;;;;;;5053741;28;20515;-64
2023/05/25 01:59:45;;;;;;;6.95;2.15;;;9.20;19.10;;;;;;5037362;28;20408;-63
2023/05/25 02:02:14;;;;;;;4.72;2.03;;;8.60;18.10;;;;;;5053575;28;20060;-63
2023/05/25 02:04:41;;;;;;;4.68;2.20;;;8.60;15.20;;;;;;5055096;28;20480;-63
2023/05/25 02:07:07;;;;;;;4.43;1.85;;;8.60;14.10;;;;;;5055062;28;20041;-63
2023/05/25 02:09:33;;;;;;;4.80;1.95;;;8.60;12.80;;;;;;5053597;28;20040;-63
2023/05/25 02:12:02;;;;;;;4.65;1.90;;;8.50;21.60;;;;;;5053535;28;20061;-63
2023/05/25 02:14:28;;;;;;;4.07;1.83;;;8.50;27.20;;;;;;5054507;28;20049;-63
2023/05/25 02:16:54;;;;;;;9.57;2.25;;;9.40;60.30;;;;;;5053593;28;20436;-64
2023/05/25 02:19:20;;;;;;;6.05;2.15;;;8.60;77.00;;;;;;5054792;28;20040;-63
2023/05/25 02:21:45;;;;;;;7.78;2.50;;;8.50;82.50;;;;;;5054785;28;20466;-64
2023/05/25 02:24:11;;;;;;;4.93;1.98;;;8.50;82.30;;;;;;5054816;28;20116;-64
2023/05/25 02:26:37;;;;;;;4.00;2.20;;;8.50;82.30;;;;;;5054704;28;20041;-65
2023/05/25 02:29:04;;;;;;;7.47;2.65;;;8.50;80.20;;;;;;5054749;28;20033;-64
2023/05/25 02:31:30;;;;;;;4.72;1.85;;;8.60;81.90;;;;;;5053374;28;20397;-63
2023/05/25 02:33:56;;;;;;;7.30;2.42;;;8.50;84.60;;;;;;5053047;28;20045;-64
2023/05/25 02:36:21;;;;;;;3.83;1.80;;;8.50;91.20;;;;;;5054214;28;20133;-63
2023/05/25 02:38:48;;;;;;;6.03;1.88;;;8.60;91.90;;;;;;5054534;28;20048;-63
2023/05/25 02:41:20;;;;;;;5.75;2.30;;;8.50;93.70;;;;;;5054173;28;20051;-63
2023/05/25 02:43:46;;;;;;;5.47;2.25;;;8.60;96.50;;;;;;5053290;28;20079;-63
2023/05/25 02:46:11;;;;;;;6.80;1.83;;;9.20;95.00;;;;;;5054008;28;20429;-63
2023/05/25 02:48:37;;;;;;;4.38;2.13;;;8.60;95.70;;;;;;5054307;28;20094;-64
2023/05/25 02:51:03;;;;;;;5.18;2.15;;;8.60;96.40;;;;;;5054304;28;20072;-63
2023/05/25 02:53:29;;;;;;;5.15;2.47;;;8.60;94.90;;;;;;5053875;28;20072;-64
2023/05/25 02:55:55;;;;;;;3.78;1.90;;;8.60;92.90;;;;;;5053933;28;20045;-64
2023/05/25 02:58:21;;;;;;;4.43;2.10;;;8.60;88.20;;;;;;5054077;28;20053;-64
2023/05/25 03:00:49;;;;;;;5.45;2.08;;;8.60;90.70;;;;;;5052755;28;20041;-64
2023/05/25 03:03:15;;;;;;;5.55;1.90;;;8.50;91.30;;;;;;5052530;28;20120;-64
2023/05/25 03:05:41;;;;;;;4.55;1.95;;;8.50;93.40;;;;;;5019501;28;20545;-64
2023/05/25 03:08:06;;;;;;;5.35;2.45;;;8.30;93.50;;;;;;5052643;28;20045;-64
2023/05/25 03:10:32;;;;;;;3.45;2.00;;;8.50;92.20;;;;;;5053545;28;20040;-64
2023/05/25 03:12:58;;;;;;;4.40;1.95;;;8.40;93.00;;;;;;5067904;28;20052;-64
2023/05/25 03:15:24;;;;;;;5.10;1.92;;;8.40;91.70;;;;;;5073658;28;20048;-64
2023/05/25 03:17:49;;;;;;;4.40;2.17;;;8.30;92.50;;;;;;5055626;28;20484;-63
2023/05/25 03:20:15;;;;;;;3.30;2.20;;;8.40;93.10;;;;;;5073314;28;20518;-63
2023/05/25 03:22:44;;;;;;;6.80;2.45;;;8.30;95.20;;;;;;5055502;28;20044;-63
2023/05/25 03:25:11;;;;;;;4.55;2.13;;;8.40;96.40;;;;;;5073565;28;20040;-64
2023/05/25 03:27:37;;;;;;;5.25;2.45;;;8.30;95.70;;;;;;5073543;28;20094;-64
2023/05/25 03:30:04;;;;;;;6.95;2.08;;;8.40;96.20;;;;;;5055543;28;20040;-64
2023/05/25 03:32:31;;;;;;;8.35;2.25;;;8.40;95.40;;;;;;5073385;28;20120;-64
2023/05/25 03:34:57;;;;;;;4.68;2.25;;;8.50;93.90;;;;;;5073471;28;20121;-64
2023/05/25 03:37:22;;;;;;;6.30;2.40;;;8.40;96.40;;;;;;5073313;28;20040;-63
2023/05/25 03:39:48;;;;;;;5.18;2.30;;;8.50;96.80;;;;;;5073084;28;20064;-64
2023/05/25 03:42:14;;;;;;;4.78;2.17;;;8.40;95.50;;;;;;5072976;28;20044;-64
2023/05/25 03:44:39;;;;;;;6.22;2.15;;;8.40;97.10;;;;;;5073029;28;20040;-64
2023/05/25 03:47:05;;;;;;;5.68;2.40;;;8.40;96.70;;;;;;5072974;28;20075;-64
2023/05/25 03:49:31;;;;;;;3.20;2.00;;;8.30;99.40;;;;;;5073213;28;20040;-64
2023/05/25 03:51:59;;;;;;;7.30;2.38;;;8.40;98.70;;;;;;5055014;28;20041;-64
2023/05/25 03:54:24;;;;;;;3.90;1.98;;;8.40;98.40;;;;;;5072786;28;20052;-64
2023/05/25 03:56:50;;;;;;;7.28;2.45;;;8.40;98.90;;;;;;5073175;28;20385;-64
2023/05/25 03:59:17;;;;;;;4.78;1.65;;;8.40;99.90;;;;;;5073101;28;20086;-64
2023/05/25 04:01:43;;;;;;;6.60;2.45;;;8.40;99.90;;;;;;5073050;28;20040;-64
2023/05/25 04:04:08;;;;;;;9.20;2.38;;;8.50;99.80;;;;;;5038437;28;20047;-64
2023/05/25 04:06:36;;;;;;;6.30;2.50;;;8.50;99.90;;;;;;5072625;28;20090;-64
2023/05/25 04:09:03;;;;;;;3.83;1.92;;;8.60;99.90;;;;;;5054973;28;20480;-64
2023/05/25 04:11:29;;;;;;;3.83;2.00;;;8.90;99.90;;;;;;5072478;28;20059;-64
2023/05/25 04:13:55;;;;;;;4.35;1.95;;;8.60;99.90;;;;;;5054736;28;20036;-66
2023/05/25 04:16:24;;;;;;;4.93;2.20;;;8.70;99.90;;;;;;5071606;28;20048;-64
2023/05/25 04:18:50;;;;;;;9.48;2.10;;;8.70;99.90;;;;;;5054860;28;20048;-64
2023/05/25 04:21:16;;;;;;;5.97;2.22;;;9.30;99.90;;;;;;5072829;28;20455;-66
2023/05/25 04:23:42;;;;;;;5.13;1.85;;;8.80;99.90;;;;;;5072852;28;20445;-63
2023/05/25 04:26:09;;;;;;;3.72;1.80;;;8.90;99.90;;;;;;5054579;28;20515;-64
2023/05/25 04:28:35;;;;;;;4.25;2.45;;;9.00;99.90;;;;;;5072438;28;20040;-64
2023/05/25 04:31:02;;;;;;;3.50;1.83;;;9.00;99.90;;;;;;5072488;28;20066;-65
2023/05/25 04:33:28;;;;;;;4.03;2.10;;;9.10;99.90;;;;;;5072694;28;20400;-64
2023/05/25 04:35:59;;;;;;;4.72;2.05;;;9.20;99.90;;;;;;5072766;28;20496;-64
2023/05/25 04:38:25;;;;;;;4.03;2.08;;;9.30;99.90;;;;;;5072563;28;20047;-64
2023/05/25 04:40:52;;;;;;;7.22;2.45;;;9.70;99.90;;;;;;5072485;28;20472;-64
2023/05/25 04:43:19;;;;;;;3.63;2.22;;;9.50;99.90;;;;;;5072665;28;20111;-64
2023/05/25 04:45:45;;;;;;;8.07;2.85;;;9.60;99.90;;;;;;5072587;28;20040;-64
2023/05/25 04:48:14;;;;;;;3.47;2.10;;;10.20;99.90;;;;;;5054397;28;20064;-64
2023/05/25 04:50:40;;;;;;;6.03;2.35;;;9.80;99.90;;;;;;5072584;28;20128;-64
2023/05/25 04:53:06;;;;;;;7.13;1.95;;;9.90;99.90;;;;;;5071398;28;20140;-64
2023/05/25 04:55:31;;;;;;;8.48;2.38;;;10.00;99.90;;;;;;5054656;28;20049;-64
2023/05/25 04:57:57;;;;;;;3.58;2.03;;;10.10;99.90;;;;;;5072195;28;20127;-65
2023/05/25 05:00:23;;;;;;;3.63;2.03;;;10.30;99.90;;;;;;5072427;28;20080;-64
2023/05/25 05:02:50;;;;;;;6.00;2.63;;;10.30;99.90;;;;;;5054497;28;20094;-64
2023/05/25 05:05:16;;;;;;;4.50;2.53;;;10.40;99.90;;;;;;5072803;28;20086;-64
2023/05/25 05:07:42;;;;;;;3.38;2.08;;;10.50;99.90;;;;;;5076200;28;20111;-64
2023/05/25 05:10:08;;;;;;;4.88;2.63;;;10.70;99.80;;;;;;5075908;28;20075;-64
2023/05/25 05:12:33;;;;;;;4.38;2.53;;;10.80;98.80;;;;;;5075790;28;20052;-64
2023/05/25 05:14:59;;;;;;;4.63;2.22;;;10.90;96.90;;;;;;5076093;28;20040;-64
2023/05/25 05:17:26;;;;;;;7.97;2.47;;;11.00;96.70;;;;;;5075945;28;20048;-64
2023/05/25 05:19:52;;;;;;;6.88;2.88;;;11.70;94.90;;;;;;5076052;28;20387;-64
2023/05/25 05:22:18;;;;;;;6.63;2.38;;;11.10;92.20;;;;;;5075717;28;20032;-64
2023/05/25 05:24:43;;;;;;;7.75;2.40;;;11.20;90.90;;;;;;5075864;28;20032;-64
2023/05/25 05:27:13;;;;;;;2.67;1.67;;;11.30;84.50;;;;;;5075863;28;20082;-64
2023/05/25 05:29:39;;;;;;;9.77;2.75;;;11.40;73.10;;;;;;5075874;28;20055;-64
2023/05/25 05:32:06;;;;;;;5.47;2.47;;;11.50;67.30;;;;;;5075769;28;20040;-64
2023/05/25 05:34:32;;;;;;;6.25;2.17;;;11.50;61.20;;;;;;5057749;28;20043;-66
2023/05/25 05:36:58;;;;;;;5.95;2.30;;;11.60;54.80;;;;;;5075649;28;20041;-65
2023/05/25 05:39:25;;;;;;;5.40;2.13;;;12.10;56.40;;;;;;5075613;28;20125;-65
2023/05/25 05:41:52;;;;;;;13.35;2.40;;;11.40;53.20;;;;;;5075562;28;20047;-69
2023/05/25 05:44:18;;;;;;;4.63;2.72;;;;;;;;;;5075560;28;20028;-64
2023/05/25 05:46:44;;;;;;;4.10;2.42;;;12.00;22.10;;;;;;5075534;28;20040;-70
2023/05/25 05:49:10;;;;;;;6.57;3.00;;;12.10;1.00;;;;;;5057616;28;20048;-67
2023/05/25 05:51:36;;;;;;;6.65;2.65;;;12.20;1.00;;;;;;5075421;28;20086;-63
2023/05/25 05:54:02;;;;;;;5.22;2.47;;;12.30;1.00;;;;;;5075027;28;20396;-64
2023/05/25 05:56:27;;;;;;;6.50;2.40;;;12.30;1.00;;;;;;5075261;28;20495;-64
2023/05/25 05:58:53;;;;;;;8.23;2.85;;;12.40;1.00;;;;;;5075297;28;20093;-67
2023/05/25 06:01:20;;;;;;;6.40;3.00;;;12.50;1.00;;;;;;5075284;28;20037;-63
2023/05/25 06:03:47;;;;;;;4.95;2.50;;;12.50;1.00;;;;;;5075244;28;20134;-64
2023/05/25 06:06:12;;;;;;;6.20;3.22;;;12.60;1.00;;;;;;5074875;28;20044;-67
2023/05/25 06:08:39;;;;;;;4.43;2.53;;;12.70;1.00;;;;;;5074998;28;20028;-64
2023/05/25 06:11:05;;;;;;;6.47;1.95;;;12.80;1.00;;;;;;5056755;28;20076;-64
2023/05/25 06:13:35;;;;;;;5.90;2.25;;;;;;;;;;5056700;28;20153;-64
2023/05/25 06:16:00;;;;;;;6.50;2.28;;;12.90;99.90;;;;;;5074651;28;20051;-64
2023/05/25 06:18:26;;;;;;;3.13;1.90;;;13.00;99.90;;;;;;5074774;28;20439;-64
2023/05/25 06:20:52;;;;;;;5.95;2.03;;;13.10;99.90;;;;;;5056618;28;20067;-64
2023/05/25 06:23:17;;;;;;;6.82;2.10;;;13.20;91.10;;;;;;5074707;28;20043;-63
2023/05/25 06:25:44;;;;;;;8.07;1.95;;;13.20;99.90;;;;;;5074825;28;20500;-64
2023/05/25 06:28:10;;;;;;;4.05;1.70;;;13.30;99.90;;;;;;5074811;28;20090;-64
2023/05/25 06:30:35;;;;;;;5.65;1.83;;;13.30;99.90;;;;;;5074650;28;20036;-64
2023/05/25 06:33:01;;;;;;;3.25;1.70;;;13.40;66.00;;;;;;5074719;28;20036;-64
2023/05/25 06:35:27;;;;;;;4.43;1.13;;;13.40;99.90;;;;;;5074579;28;20076;-64
2023/05/25 06:37:53;;;;;;;7.07;1.88;;;13.40;1.00;;;;;;5074109;28;20083;-64
2023/05/25 06:40:19;;;;;;;3.35;1.42;;;13.40;99.90;;;;;;5056355;28;20040;-64
2023/05/25 06:42:45;;;;;;;7.97;1.60;;;13.60;18.40;;;;;;5074081;28;20056;-64
2023/05/25 06:45:10;;;;;;;7.10;1.48;;;13.40;99.90;;;;;;5056316;28;20075;-64
2023/05/25 06:47:36;;;;;;;5.72;1.90;;;13.40;99.90;;;;;;5074314;28;20050;-63
2023/05/25 06:50:02;;;;;;;8.70;1.55;;;13.40;1.00;;;;;;5074371;28;20547;-67
2023/05/25 06:52:28;;;;;;;8.27;1.35;;;13.50;99.90;;;;;;5056391;28;20040;-64
2023/05/25 06:54:55;;;;;;;3.20;1.40;;;13.50;99.90;;;;;;5074170;28;20036;-64
2023/05/25 06:57:22;;;;;;;7.93;1.25;;;13.50;99.90;;;;;;5074037;28;20045;-65
2023/05/25 06:59:47;;;;;;;2.92;1.13;;;15.10;28.10;;;;;;5074090;28;20044;-64
2023/05/25 07:02:13;;;;;;;3.65;1.20;;;14.30;61.80;;;;;;5073926;28;20486;-64
2023/05/25 07:04:38;;;;;;;4.97;1.20;;;13.60;23.60;;;;;;5073768;28;20040;-64
2023/05/25 07:07:05;;;;;;;3.30;1.42;;;13.60;1.00;;;;;;5073925;28;20033;-64
2023/05/25 07:09:31;;;;;;;2.88;1.25;;;13.50;1.00;;;;;;5055732;28;20049;-64
2023/05/25 07:11:57;;;;;;;5.47;1.15;;;13.50;1.00;;;;;;5073670;28;20067;-64
2023/05/25 07:14:22;;;;;;;4.95;1.40;;;14.00;1.00;;;;;;5073537;28;20056;-64
2023/05/25 07:16:48;;;;;;;7.88;1.52;;;13.60;99.90;;;;;;5073747;28;20068;-63
2023/05/25 07:19:14;;;;;;;6.85;1.58;;;13.70;99.90;;;;;;5073649;28;20041;-63
2023/05/25 07:21:39;;;;;;;9.80;1.70;;;13.90;99.90;;;;;;5055739;28;20115;-63
2023/05/25 07:24:05;;;;;;;6.18;1.58;;;14.20;99.90;;;;;;5073612;28;20361;-63
2023/05/25 07:26:32;;;;;;;4.32;1.50;;;14.30;99.90;;;;;;5072366;28;20041;-63
2023/05/25 07:28:58;;;;;;;4.80;1.38;;;14.30;99.90;;;;;;5072516;28;20041;-64
2023/05/25 07:31:23;;;;;;;3.88;1.20;;;14.40;99.90;;;;;;5073378;28;20047;-63
2023/05/25 07:33:49;;;;;;;6.63;1.60;;;14.40;99.90;;;;;;5073513;28;20405;-65
2023/05/25 07:36:15;;;;;;;6.50;1.15;;;14.40;99.90;;;;;;5073270;28;20049;-64
2023/05/25 07:38:41;;;;;;;4.20;1.10;;;14.40;99.90;;;;;;5073414;28;20036;-64
2023/05/25 07:41:07;;;;;;;3.72;1.75;;;14.50;99.90;;;;;;5073181;28;20036;-64
2023/05/25 07:43:32;;;;;;;4.13;1.20;;;14.50;99.90;;;;;;5055072;28;20416;-64
2023/05/25 07:46:00;;;;;;;5.47;1.45;;;14.40;99.90;;;;;;5073333;28;20040;-65
2023/05/25 07:48:26;;;;;;;10.07;1.40;;;14.40;99.90;;;;;;5073189;28;20051;-66
2023/05/25 07:50:52;;;;;;;6.75;1.98;;;14.60;99.90;;;;;;5073223;28;20388;-65
2023/05/25 07:53:18;;;;;;;7.30;1.65;;;14.30;99.90;;;;;;5073182;28;20041;-65
2023/05/25 07:55:43;;;;;;;4.07;1.33;;;14.20;99.90;;;;;;5054940;28;20412;-65
2023/05/25 07:58:09;;;;;;;6.28;1.67;;;14.30;99.90;;;;;;5073078;28;20476;-64
2023/05/25 08:00:34;;;;;;;3.58;1.52;;;14.50;99.90;;;;;;5055099;28;20052;-65
2023/05/25 08:03:01;;;;;;;7.43;1.42;;;14.80;99.90;;;;;;5073131;28;20040;-65
2023/05/25 08:05:27;;;;;;;3.88;1.33;;;15.00;99.90;;;;;;5071818;28;20388;-64
2023/05/25 08:07:53;;;;;;;5.15;1.95;;;15.30;99.90;;;;;;5073005;28;20097;-65
2023/05/25 08:10:19;;;;;;;9.73;1.63;;;15.20;99.90;;;;;;5054690;28;20076;-65
2023/05/25 08:12:45;;;;;;;8.80;1.77;;;15.00;99.90;;;;;;5051263;28;20088;-65
2023/05/25 08:15:12;;;;;;;5.53;1.63;;;14.80;99.90;;;;;;5052989;28;20492;-64
2023/05/25 08:17:38;;;;;;;8.02;2.05;;;14.60;99.90;;;;;;5051236;28;20049;-64
2023/05/25 08:20:07;;;;;;;10.18;1.50;;;14.50;99.90;;;;;;5052965;28;20036;-64
2023/05/25 08:22:34;;;;;;;4.32;1.40;;;14.60;99.90;;;;;;5052881;28;20045;-64
2023/05/25 08:25:02;;;;;;;7.63;1.58;;;14.70;99.90;;;;;;5052628;28;20041;-65
2023/05/25 08:27:27;;;;;;;5.70;1.42;;;15.00;99.90;;;;;;5052861;28;20095;-65
2023/05/25 08:29:53;;;;;;;5.95;1.48;;;15.20;99.90;;;;;;5052820;28;20473;-65
2023/05/25 08:32:19;;;;;;;5.20;1.75;;;15.70;99.90;;;;;;5052787;28;20052;-65
2023/05/25 08:34:45;;;;;;;5.53;1.70;;;17.00;99.90;;;;;;5051176;28;20500;-64
2023/05/25 08:37:10;;;;;;;4.55;1.23;;;16.00;99.90;;;;;;5052657;28;20081;-64
2023/05/25 08:39:36;;;;;;;7.80;1.95;;;16.00;99.90;;;;;;5053722;28;20494;-64
2023/05/25 08:42:02;;;;;;;5.32;1.20;;;15.90;99.90;;;;;;5055653;28;20071;-64
2023/05/25 08:44:28;;;;;;;5.90;1.50;;;15.70;99.90;;;;;;5056482;28;20049;-69
2023/05/25 08:46:55;;;;;;;7.80;1.67;;;16.00;98.20;;;;;;5055126;28;20429;-64
2023/05/25 08:49:22;;;;;;;6.63;1.92;;;15.30;99.90;;;;;;5056611;28;20049;-65
2023/05/25 08:51:50;;;;;;;4.60;1.58;;;15.10;98.40;;;;;;5056257;28;20043;-65
2023/05/25 08:54:26;;;;;;;9.90;1.70;;;15.00;98.10;;;;;;5056530;28;20072;-65
2023/05/25 08:56:58;;;;;;;8.95;1.48;;;14.90;96.40;;;;;;5056366;28;20037;-65
2023/05/25 08:59:36;;;;;;;9.75;1.98;;;15.30;97.20;;;;;;5056083;28;20043;-65
2023/05/25 09:02:25;;;;;;;3.97;1.60;;;15.30;96.60;;;;;;5054886;28;20102;-65
2023/05/25 09:04:51;;;;;;;12.05;1.75;;;15.30;92.50;;;;;;5055075;28;20041;-65
2023/05/25 09:07:17;;;;;;;6.15;2.28;;;15.40;94.60;;;;;;5056277;28;20043;-64
2023/05/25 09:09:45;;;;;;;5.70;1.85;;;15.50;93.90;;;;;;5054804;28;20132;-65
2023/05/25 09:12:11;;;;;;;5.90;1.63;;;15.60;94.70;;;;;;5054555;28;20053;-65
2023/05/25 09:14:44;;;;;;;6.03;1.67;;;15.90;94.90;;;;;;5055901;28;20087;-65
2023/05/25 09:17:11;;;;;;;6.50;1.35;;;15.50;93.90;;;;;;5054621;28;20056;-65
2023/05/25 09:19:36;;;;;;;5.93;1.40;;;15.50;93.40;;;;;;5054843;28;20052;-65
2023/05/25 09:22:02;;;;;;;5.35;1.45;;;15.70;95.20;;;;;;5056098;28;20040;-64
2023/05/25 09:24:28;;;;;;;3.63;1.48;;;15.90;90.80;;;;;;5054519;28;20037;-65
2023/05/25 09:26:54;;;;;;;7.32;1.52;;;16.00;88.50;;;;;;5055966;28;20098;-65
2023/05/25 09:29:20;;;;;;;8.10;2.03;;;16.10;86.20;;;;;;5055891;28;20401;-65
2023/05/25 09:31:46;;;;;;;8.13;1.38;;;16.00;84.10;;;;;;5054637;28;20480;-65
2023/05/25 09:34:13;;;;;;;6.05;1.52;;;16.00;82.40;;;;;;5054665;28;20090;-65
2023/05/25 09:36:42;;;;;;;7.53;1.63;;;15.80;82.30;;;;;;5055693;28;20037;-65
2023/05/25 09:39:09;;;;;;;6.13;2.08;;;15.90;83.40;;;;;;5055732;28;20069;-65
2023/05/25 09:41:36;;;;;;;5.75;1.55;;;16.00;85.90;;;;;;5055388;28;20083;-64
2023/05/25 09:44:03;;;;;;;7.00;1.70;;;15.90;76.50;;;;;;5055686;28;20033;-65
2023/05/25 09:46:31;;;;;;;5.38;1.70;;;15.90;77.10;;;;;;5055650;28;20044;-65
2023/05/25 09:48:58;;;;;;;8.10;1.38;;;15.90;79.80;;;;;;5055559;28;20124;-65
2023/05/25 09:51:25;;;;;;;8.82;1.80;;;15.80;69.50;;;;;;5054545;28;20041;-65
2023/05/25 09:53:51;;;;;;;13.00;2.03;;;15.70;73.20;;;;;;5055451;28;20045;-65
2023/05/25 09:56:17;;;;;;;3.22;1.35;;;15.70;74.60;;;;;;5055012;28;20033;-64
2023/05/25 09:58:44;;;;;;;6.90;1.88;;;15.90;76.80;;;;;;5055053;28;20040;-64
2023/05/25 10:01:10;;;;;;;8.27;2.17;;;15.80;66.60;;;;;;5055352;28;20086;-65
2023/05/25 10:03:45;;;;;;;4.80;1.45;;;15.90;70.70;;;;;;5053840;28;20435;-64
2023/05/25 10:06:13;;;;;;;4.00;1.75;;;15.90;70.10;;;;;;5054109;28;20102;-65
2023/05/25 10:08:41;;;;;;;3.97;1.70;;;15.80;65.70;;;;;;5053681;28;20048;-64
2023/05/25 10:11:07;;;;;;;8.73;1.70;;;15.60;66.50;;;;;;5054846;28;20120;-65
2023/05/25 10:13:33;;;;;;;7.18;1.65;;;15.50;65.60;;;;;;5053660;28;20107;-65
2023/05/25 10:16:00;;;;;;;8.48;1.63;;;15.90;69.00;;;;;;5053581;28;20045;-65
2023/05/25 10:18:31;;;;;;;5.40;1.23;;;15.90;67.50;;;;;;5053385;28;20049;-65
2023/05/25 10:21:01;;;;;;;;;;;15.80;64.90;;;;;;5055504;28;20037;-65
2023/05/25 10:23:36;;;;;;;5.72;1.70;;;15.90;64.20;;;;;;5070360;28;19921;-65
2023/05/25 10:26:05;;;;;;;7.72;1.70;;;16.10;66.20;;;;;;5054611;28;20121;-65
2023/05/25 10:28:38;;;;;;;4.90;1.45;;;16.00;64.30;;;;;;5054604;28;20072;-65
2023/05/25 10:31:05;;;;;;;6.18;1.45;;;16.40;53.50;;;;;;5054824;28;20052;-65
2023/05/25 10:33:32;;;;;;;9.60;1.77;;;15.80;61.80;;;;;;5036672;28;20413;-65
2023/05/25 10:35:58;;;;;;;5.80;1.73;;;16.00;62.70;;;;;;5054399;28;20049;-68
2023/05/25 10:38:27;;;;;;;5.80;1.70;;;16.00;61.30;;;;;;5052950;28;20409;-65
2023/05/25 10:40:54;;;;;;;7.25;1.30;;;15.80;55.60;;;;;;5054538;28;20045;-65
2023/05/25 10:43:21;;;;;;;5.32;1.52;;;15.80;58.70;;;;;;5054496;28;20044;-65
2023/05/25 10:45:47;;;;;;;7.68;1.55;;;15.80;56.20;;;;;;5052975;28;20049;-65
2023/05/25 10:48:14;;;;;;;3.55;1.75;;;15.80;55.90;;;;;;5054138;28;20052;-65
2023/05/25 10:50:40;;;;;;;7.00;1.88;;;15.80;56.20;;;;;;5054430;28;20427;-65
2023/05/25 10:53:14;;;;;;;7.05;1.45;;;16.00;58.60;;;;;;5054281;28;20041;-66
2023/05/25 10:55:48;;;;;;;4.82;1.63;;;16.20;55.40;;;;;;5052995;28;20076;-65
2023/05/25 10:58:15;;;;;;;6.40;1.60;;;16.00;54.80;;;;;;5052923;28;20045;-65
2023/05/25 11:00:41;;;;;;;3.15;1.50;;;16.00;50.80;;;;;;5054218;28;20044;-65
2023/05/25 11:03:07;;;;;;;6.07;1.98;;;15.90;53.80;;;;;;5053096;28;20057;-65
2023/05/25 11:05:36;;;;;;;8.35;1.92;;;16.30;60.70;;;;;;5052541;28;20420;-65
2023/05/25 11:08:13;;;;;;;3.50;1.50;;;16.30;53.50;;;;;;5052529;28;20075;-65
2023/05/25 11:10:47;;;;;;;4.07;1.40;;;16.30;56.50;;;;;;5052787;28;20095;-65
2023/05/25 11:13:36;;;;;;;4.47;1.20;;;16.50;53.60;;;;;;5068127;28;20139;-65
2023/05/25 11:16:22;;;;;;;6.57;1.50;;;16.50;56.70;;;;;;5073890;28;20404;-65
2023/05/25 11:18:52;;;;;;;4.55;1.40;;;16.60;56.20;;;;;;5073805;28;20519;-65
2023/05/25 11:21:30;;;;;;;7.95;1.80;;;16.50;50.40;;;;;;5055564;28;20507;-65
2023/05/25 11:24:05;;;;;;;3.55;1.20;;;16.30;45.90;;;;;;5073804;28;20433;-64
2023/05/25 11:26:35;;;;;;;9.45;1.98;;;16.40;49.50;;;;;;5055816;28;20052;-65
2023/05/25 11:29:11;;;;;;;12.98;1.85;;;16.60;49.00;;;;;;5073696;28;20119;-65
2023/05/25 11:31:36;;;;;;;4.18;1.42;;;16.60;52.20;;;;;;5055709;28;20491;-64
2023/05/25 11:34:03;;;;;;;4.20;1.15;;;16.60;53.90;;;;;;5073546;28;20111;-65
2023/05/25 11:36:33;;;;;;;6.97;1.52;;;16.60;51.60;;;;;;5073385;28;20044;-65
2023/05/25 11:39:04;;;;;;;3.93;2.00;;;16.60;66.00;;;;;;5073520;28;20033;-65
2023/05/25 11:41:31;;;;;;;8.10;2.00;;;16.50;53.80;;;;;;5073289;28;20040;-65
2023/05/25 11:44:05;;;;;;;7.07;1.70;;;16.40;49.60;;;;;;5073381;28;20048;-64
2023/05/25 11:46:32;;;;;;;13.45;2.03;;;16.20;47.00;;;;;;5055362;28;20041;-65
2023/05/25 11:48:58;;;;;;;7.45;2.20;;;16.20;49.20;;;;;;5055047;28;20040;-65
2023/05/25 11:51:26;;;;;;;6.55;2.33;;;15.80;46.40;;;;;;5038415;28;20043;-65
2023/05/25 11:53:51;;;;;;;6.53;2.00;;;16.20;49.20;;;;;;5072899;28;20033;-64
2023/05/25 11:56:18;;;;;;;9.30;2.38;;;16.30;49.30;;;;;;5072850;28;20044;-65
2023/05/25 11:58:46;;;;;;;4.03;1.92;;;16.50;50.90;;;;;;5072783;28;20041;-65
2023/05/25 12:01:21;;;;;;;5.30;1.70;;;16.40;45.90;;;;;;5072817;28;20072;-65
2023/05/25 12:03:50;;;;;;;8.77;1.85;;;16.60;49.60;;;;;;5073107;28;20036;-65
2023/05/25 12:06:32;;;;;;;6.10;1.70;;;16.70;53.60;;;;;;5073033;28;20040;-64
2023/05/25 12:08:58;;;;;;;6.55;1.65;;;16.60;50.10;;;;;;5072844;28;20416;-65
2023/05/25 12:11:32;;;;;;;5.20;1.95;;;16.50;48.40;;;;;;5072806;28;20119;-65
2023/05/25 12:13:59;;;;;;;4.60;1.80;;;16.30;43.60;;;;;;5072433;28;20055;-65
2023/05/25 12:16:27;;;;;;;11.50;2.17;;;16.40;45.30;;;;;;5072664;28;20086;-65
2023/05/25 12:18:53;;;;;;;8.13;1.65;;;16.40;47.10;;;;;;5073016;28;20032;-65
2023/05/25 12:21:21;;;;;;;6.43;1.98;;;16.60;49.20;;;;;;5072907;28;20036;-65
2023/05/25 12:23:47;;;;;;;8.15;1.67;;;16.80;49.50;;;;;;5072960;28;20068;-65
2023/05/25 12:26:15;;;;;;;8.02;1.67;;;16.80;50.30;;;;;;5072562;28;20037;-64
2023/05/25 12:29:04;;;;;;;7.57;1.50;;;16.80;53.70;;;;;;5072620;28;20047;-67
2023/05/25 12:31:35;;;;;;;10.43;2.10;;;16.60;46.20;;;;;;5072845;28;20040;-64
2023/05/25 12:34:18;;;;;;;7.38;1.70;;;16.60;59.10;;;;;;5072614;28;20083;-64
2023/05/25 12:36:51;;;;;;;6.55;1.63;;;16.60;46.60;;;;;;5054440;28;20044;-65
2023/05/25 12:39:29;;;;;;;9.60;2.03;;;16.40;44.10;;;;;;5071428;28;20033;-64
2023/05/25 12:41:56;;;;;;;7.70;2.10;;;16.20;38.90;;;;;;5072754;28;20083;-64
2023/05/25 12:44:32;;;;;;;6.55;1.85;;;16.40;43.00;;;;;;5072732;28;20033;-64
2023/05/25 12:47:18;;;;;;;8.25;2.08;;;16.40;39.00;;;;;;5054841;28;20165;-64
2023/05/25 12:50:09;;;;;;;9.95;1.98;;;16.50;43.50;;;;;;5054341;28;20044;-65
2023/05/25 12:52:36;;;;;;;;;;;16.70;44.80;;;;;;5072819;28;20043;-65
2023/05/25 12:55:17;;;;;;;7.05;2.15;;;16.70;43.40;;;;;;5072707;28;19921;-66